Time;durP1;ratioP1;P1;durP2;ratioP2;P2;SDS_P1;SDS_P2;PMS_P1;PMS_P2;Temp;Humidity;BMP_temperature;BMP_pressure;BME280_temperature;BME280_humidity;BME280_pressure;Samples;Min_cycle;Max_cycle;Signal;HPM_P1;HPM_P2
2019/07/18 00:01:44;;;;;;;6.9;5.3;;;;;;;16.13;65.83008;935.8197;;;;
2019/07/18 00:04:15;;;;;;;6.4;5.7;;;;;;;16.23;67.15332;935.8801;;;;
2019/07/18 00:06:38;;;;;;;7.1;5.4;;;;;;;16.28;65.94434;935.8835;;;;
2019/07/18 00:09:05;;;;;;;7.9;5.8;;;;;;;16.24;65.82324;935.8713;;;;
2019/07/18 00:11:35;;;;;;;7.9;5.9;;;;;;;16.18;66.3457;935.8823;;;;
2019/07/18 00:14:02;;;;;;;10.7;6.1;;;;;;;16.01;66.6084;935.8727;;;;
2019/07/18 00:16:31;;;;;;;8.5;6.2;;;;;;;16.08;66.94531;935.8766;;;;
2019/07/18 00:19:02;;;;;;;6.9;5.8;;;;;;;16.03;67.04102;935.8999;;;;
2019/07/18 00:21:28;;;;;;;7;6;;;;;;;16.13;66.94043;935.8543;;;;
2019/07/18 00:24:03;;;;;;;7.4;5.6;;;;;;;16.11;66.19727;935.861;;;;
2019/07/18 00:26:32;;;;;;;6.7;5.9;;;;;;;15.87;66.40332;935.8033;;;;
2019/07/18 00:28:59;;;;;;;6.5;5.9;;;;;;;15.79;66.7959;935.7745;;;;
2019/07/18 00:31:28;;;;;;;7.5;5.8;;;;;;;15.65;67.59473;935.7949;;;;
2019/07/18 00:33:54;;;;;;;6.5;5.8;;;;;;;15.69;67.58789;935.817;;;;
2019/07/18 00:36:24;;;;;;;7.9;5.8;;;;;;;15.55;68.08789;935.7556;;;;
2019/07/18 00:38:54;;;;;;;6.2;5.6;;;;;;;15.47;68.04102;935.7816;;;;
2019/07/18 00:41:19;;;;;;;6.9;5.6;;;;;;;15.42;68.19336;935.6813;;;;
2019/07/18 00:43:52;;;;;;;7.8;5.7;;;;;;;15.52;67.81836;935.6517;;;;
2019/07/18 00:46:25;;;;;;;7.3;5.6;;;;;;;15.54;67.78516;935.637;;;;
2019/07/18 00:48:57;;;;;;;7.1;5.7;;;;;;;15.58;67.69922;935.6573;;;;
2019/07/18 00:51:21;;;;;;;7.1;5.9;;;;;;;15.32;68.33984;935.6838;;;;
2019/07/18 00:53:47;;;;;;;6.5;5.6;;;;;;;15.29;68.6123;935.6656;;;;
2019/07/18 00:56:13;;;;;;;9.4;5.5;;;;;;;15.04;69.06934;935.6308;;;;
2019/07/18 00:58:49;;;;;;;6.6;5.9;;;;;;;15.13;69.07324;935.5815;;;;
2019/07/18 01:01:15;;;;;;;6.1;5.5;;;;;;;15.27;68.29688;935.6219;;;;
2019/07/18 01:03:45;;;;;;;6.4;5.8;;;;;;;15.32;67.90137;935.6501;;;;
2019/07/18 01:06:09;;;;;;;6.8;5.8;;;;;;;15.4;68.74512;935.576;;;;
2019/07/18 01:08:38;;;;;;;6.2;5.6;;;;;;;15.39;67.73926;935.6372;;;;
2019/07/18 01:11:17;;;;;;;6.3;5.7;;;;;;;15.52;67.53906;935.5963;;;;
2019/07/18 01:13:38;;;;;;;7.7;5.9;;;;;;;15.36;68.2666;935.6063;;;;
2019/07/18 01:16:11;;;;;;;8;5.6;;;;;;;15.51;67.60742;935.5715;;;;
2019/07/18 01:18:44;;;;;;;6.8;5.7;;;;;;;15.4;67.91406;935.5463;;;;
2019/07/18 01:21:14;;;;;;;6.9;5.9;;;;;;;15.47;67.92383;935.5089;;;;
2019/07/18 01:23:47;;;;;;;7.1;6;;;;;;;15.48;68.19043;935.5031;;;;
2019/07/18 01:26:13;;;;;;;7.3;6.3;;;;;;;15.55;68.20313;935.5502;;;;
2019/07/18 01:28:41;;;;;;;6.9;6.2;;;;;;;15.48;68.16797;935.5416;;;;
2019/07/18 01:31:07;;;;;;;7;6.3;;;;;;;15.42;68.12598;935.5055;;;;
2019/07/18 01:33:37;;;;;;;9.6;6.3;;;;;;;15.31;69.2041;935.5137;;;;
2019/07/18 01:36:03;;;;;;;9.3;6;;;;;;;15.33;68.46875;935.4647;;;;
2019/07/18 01:38:27;;;;;;;6.8;6.1;;;;;;;15.29;68.79785;935.478;;;;
2019/07/18 01:40:58;;;;;;;6.7;6;;;;;;;15.35;68.02051;935.4708;;;;
2019/07/18 01:43:22;;;;;;;7.9;6.1;;;;;;;15.29;68.12793;935.5294;;;;
2019/07/18 01:45:49;;;;;;;7.9;5.9;;;;;;;15.08;68.58008;935.4339;;;;
2019/07/18 01:48:17;;;;;;;7.2;6;;;;;;;15.01;68.77637;935.5531;;;;
2019/07/18 01:50:58;;;;;;;7.1;6.1;;;;;;;15.08;68.71875;935.5148;;;;
2019/07/18 01:53:34;;;;;;;6.7;5.9;;;;;;;15.05;68.99023;935.5441;;;;
2019/07/18 01:55:58;;;;;;;7.5;6.1;;;;;;;15.06;68.95801;935.5126;;;;
2019/07/18 01:58:27;;;;;;;7;6.1;;;;;;;15.03;68.96387;935.6149;;;;
2019/07/18 02:00:51;;;;;;;6.9;6.2;;;;;;;14.98;68.93262;935.5439;;;;
2019/07/18 02:03:17;;;;;;;6.9;5.9;;;;;;;14.74;69.74707;935.5415;;;;
2019/07/18 02:05:49;;;;;;;8.3;6.4;;;;;;;14.74;70.15039;935.4902;;;;
2019/07/18 02:08:20;;;;;;;8;6.6;;;;;;;14.84;69.71777;935.5214;;;;
2019/07/18 02:10:44;;;;;;;9.2;6.7;;;;;;;14.83;69.2666;935.5183;;;;
2019/07/18 02:13:12;;;;;;;12.4;6.8;;;;;;;14.81;69.31055;935.5286;;;;
2019/07/18 02:15:40;;;;;;;6.9;6.2;;;;;;;14.41;70.40918;935.5064;;;;
2019/07/18 02:18:07;;;;;;;6.7;5.9;;;;;;;14.41;70.50098;935.5488;;;;
2019/07/18 02:20:51;;;;;;;13.2;6.6;;;;;;;14.53;70.29102;935.4969;;;;
2019/07/18 02:23:17;;;;;;;7.6;6.5;;;;;;;14.65;69.67676;935.5472;;;;
2019/07/18 02:25:48;;;;;;;7.5;6.2;;;;;;;14.53;70.10742;935.5522;;;;
2019/07/18 02:28:15;;;;;;;7.8;6.2;;;;;;;14.05;71.83594;935.5558;;;;
2019/07/18 02:30:50;;;;;;;8.2;6.5;;;;;;;13.92;72.5625;935.5565;;;;
2019/07/18 02:33:16;;;;;;;7.4;6.3;;;;;;;14.01;72.33594;935.5598;;;;
2019/07/18 02:35:45;;;;;;;7.5;6.8;;;;;;;14.25;71.67383;935.5496;;;;
2019/07/18 02:38:19;;;;;;;9.6;6.6;;;;;;;14.41;71.26172;935.54;;;;
2019/07/18 02:40:41;;;;;;;12.3;7.2;;;;;;;14.56;70.7334;935.4934;;;;
2019/07/18 02:43:11;;;;;;;8;6.7;;;;;;;14.65;69.75586;935.5737;;;;
2019/07/18 02:45:31;;;;;;;8.7;6.8;;;;;;;14.59;69.93164;935.5925;;;;
2019/07/18 02:47:59;;;;;;;8.7;6.5;;;;;;;14.37;70.7832;935.5492;;;;
2019/07/18 02:50:23;;;;;;;11.2;7.3;;;;;;;14.31;71.16504;935.5602;;;;
2019/07/18 02:52:50;;;;;;;8.1;6.6;;;;;;;14.33;71.2373;935.532;;;;
2019/07/18 02:55:15;;;;;;;7.7;6.6;;;;;;;14.42;70.80371;935.5691;;;;
2019/07/18 02:57:44;;;;;;;8.4;6.6;;;;;;;14.56;70.2959;935.5744;;;;
2019/07/18 03:00:06;;;;;;;8.4;6.8;;;;;;;14.59;70.41699;935.5452;;;;
2019/07/18 03:02:39;;;;;;;8;7.2;;;;;;;14.68;70.03906;935.5694;;;;
2019/07/18 03:05:04;;;;;;;7.4;6.3;;;;;;;14.62;70.28125;935.5684;;;;
2019/07/18 03:07:34;;;;;;;7.7;6.5;;;;;;;14.57;70.11426;935.6415;;;;
2019/07/18 03:09:58;;;;;;;8.4;6.6;;;;;;;14.49;70.21484;935.5959;;;;
2019/07/18 03:21:52;;;;;;;8.1;7.3;;;;;;;14.57;69.73145;935.5655;;;;
2019/07/18 03:32:44;;;;;;;11.4;7.4;;;;;;;13.8;72.73926;935.5828;;;;
2019/07/18 03:38:59;;;;;;;8.3;7.2;;;;;;;13.94;73.50977;935.6404;;;;
2019/07/18 03:41:35;;;;;;;10.2;7.5;;;;;;;14.01;73.30273;935.6111;;;;
2019/07/18 03:44:04;;;;;;;8.2;7;;;;;;;14.13;72.48242;935.632;;;;
2019/07/18 03:46:31;;;;;;;8.7;7.5;;;;;;;14.16;72.0957;935.6541;;;;
2019/07/18 03:49:03;;;;;;;8.5;7.3;;;;;;;14.31;71.66016;935.6155;;;;
2019/07/18 03:51:32;;;;;;;8;7.3;;;;;;;14.41;71.27344;935.6258;;;;
2019/07/18 03:53:54;;;;;;;8.8;6.8;;;;;;;14.41;70.95215;935.5183;;;;
2019/07/18 03:56:19;;;;;;;8.7;7.2;;;;;;;14.4;71.14648;935.7035;;;;
2019/07/18 03:58:50;;;;;;;9.2;7;;;;;;;14.38;70.94629;935.6548;;;;
2019/07/18 04:02:34;;;;;;;8.4;6.8;;;;;;;14.01;71.77246;935.5895;;;;
2019/07/18 04:05:01;;;;;;;7.3;6.6;;;;;;;13.98;71.36523;935.5712;;;;
2019/07/18 04:07:29;;;;;;;8.7;6.6;;;;;;;14.24;71.0957;935.5728;;;;
2019/07/18 04:10:03;;;;;;;8.5;6.2;;;;;;;14.26;70.92578;935.6344;;;;
2019/07/18 04:12:30;;;;;;;8.3;6.5;;;;;;;14.16;70.98047;935.6789;;;;
2019/07/18 04:15:00;;;;;;;7.5;6.3;;;;;;;14.06;71.57227;935.6526;;;;
2019/07/18 04:17:21;;;;;;;11.3;6.5;;;;;;;14.1;70.96973;935.7371;;;;
2019/07/18 04:19:46;;;;;;;9.2;7.2;;;;;;;14.28;70.7002;935.6406;;;;
2019/07/18 04:22:14;;;;;;;7.7;6.5;;;;;;;14.43;69.95313;935.6667;;;;
2019/07/18 04:24:38;;;;;;;9.1;6.4;;;;;;;14.45;69.44824;935.7156;;;;
2019/07/18 04:27:02;;;;;;;8.1;6.5;;;;;;;14.6;70.2334;935.7366;;;;
2019/07/18 04:29:26;;;;;;;9.3;6.7;;;;;;;14.68;69.68066;935.6472;;;;
2019/07/18 04:31:57;;;;;;;9.5;6.6;;;;;;;14.83;68.22754;935.6771;;;;
2019/07/18 04:34:22;;;;;;;10.5;6.7;;;;;;;14.89;68.61816;935.6868;;;;
2019/07/18 04:36:47;;;;;;;9.2;6.6;;;;;;;14.85;68.30273;935.6953;;;;
2019/07/18 04:39:20;;;;;;;10.2;6.7;;;;;;;14.94;68.32715;935.6766;;;;
2019/07/18 04:41:49;;;;;;;6.7;6;;;;;;;14.96;69.0332;935.6492;;;;
2019/07/18 04:44:14;;;;;;;6.7;6;;;;;;;14.88;67.94824;935.7182;;;;
2019/07/18 04:46:38;;;;;;;11.2;6.5;;;;;;;14.92;68.59961;935.6448;;;;
2019/07/18 04:49:07;;;;;;;9.7;6.3;;;;;;;15.05;68.45898;935.6131;;;;
2019/07/18 04:51:33;;;;;;;11.4;7.1;;;;;;;15.15;68.40527;935.6014;;;;
2019/07/18 04:54:03;;;;;;;14;7.1;;;;;;;15.29;67.59668;935.6143;;;;
2019/07/18 04:56:27;;;;;;;9.6;6.7;;;;;;;15.49;67.24805;935.6336;;;;
2019/07/18 04:58:55;;;;;;;9.8;6;;;;;;;15.47;67.05859;935.6492;;;;
2019/07/18 05:01:22;;;;;;;9.7;6.2;;;;;;;15.4;67.67188;935.6916;;;;
2019/07/18 05:03:47;;;;;;;7.5;6.1;;;;;;;15.55;67.07129;935.6658;;;;
2019/07/18 05:06:14;;;;;;;9;5.8;;;;;;;15.58;67.14453;935.6958;;;;
2019/07/18 05:08:41;;;;;;;8.6;6.3;;;;;;;15.74;66.86816;935.6821;;;;
2019/07/18 05:11:04;;;;;;;9;6.8;;;;;;;15.88;66.3125;935.6273;;;;
2019/07/18 05:13:34;;;;;;;10.5;7;;;;;;;16.14;66.05078;935.5874;;;;
2019/07/18 05:15:59;;;;;;;14.4;8.1;;;;;;;16.32;64.44727;935.608;;;;
2019/07/18 05:18:26;;;;;;;8.8;6.5;;;;;;;16.77;63.2627;935.6355;;;;
2019/07/18 05:20:50;;;;;;;8.3;5.5;;;;;;;16.67;63.05078;935.5656;;;;
2019/07/18 05:23:28;;;;;;;9.4;5.2;;;;;;;16.84;63.12207;935.6303;;;;
2019/07/18 05:25:52;;;;;;;7.7;5.2;;;;;;;17.34;61.33789;935.5598;;;;
2019/07/18 05:28:17;;;;;;;6.5;4.9;;;;;;;17.26;61.12988;935.5664;;;;
2019/07/18 05:30:44;;;;;;;7.8;5.4;;;;;;;17.23;61.47363;935.5614;;;;
2019/07/18 05:33:16;;;;;;;7.3;4.9;;;;;;;17.31;61.41406;935.5983;;;;
2019/07/18 05:35:41;;;;;;;7.9;5.3;;;;;;;17.09;61.96484;935.5784;;;;
2019/07/18 05:38:05;;;;;;;10.3;5.8;;;;;;;17.09;62.94727;935.6694;;;;
2019/07/18 05:40:34;;;;;;;10.5;5.9;;;;;;;17.32;62.38965;935.6489;;;;
2019/07/18 05:43:10;;;;;;;11.4;6.1;;;;;;;17.26;61.81348;935.6863;;;;
2019/07/18 05:45:34;;;;;;;8.3;5.8;;;;;;;17.23;62.45898;935.7248;;;;
2019/07/18 05:48:03;;;;;;;9;6.1;;;;;;;17.25;61.1748;935.7566;;;;
2019/07/18 05:50:33;;;;;;;9.5;5.7;;;;;;;17.26;61.9873;935.7081;;;;
2019/07/18 05:53:00;;;;;;;7.2;5.4;;;;;;;17.48;61.20703;935.7528;;;;
2019/07/18 05:55:24;;;;;;;9.6;5.6;;;;;;;17.27;60.97852;935.7715;;;;
2019/07/18 05:57:50;;;;;;;8.1;5.8;;;;;;;17.06;62.33008;935.7841;;;;
2019/07/18 06:00:16;;;;;;;9.8;5.4;;;;;;;17.18;62.52148;935.7867;;;;
2019/07/18 06:02:53;;;;;;;7.3;5.7;;;;;;;17.33;61.91699;935.7639;;;;
2019/07/18 06:05:34;;;;;;;9.3;5.7;;;;;;;17.3;61.94629;935.7419;;;;
2019/07/18 06:08:14;;;;;;;7.5;5.6;;;;;;;17.01;61.61621;935.7262;;;;
2019/07/18 06:10:27;;;;;;;12.2;5.5;;;;;;;17.38;62.01563;935.6976;;;;
2019/07/18 06:12:55;;;;;;;8.7;5.6;;;;;;;17.6;61.29395;935.7333;;;;
2019/07/18 06:15:22;;;;;;;8.1;5.5;;;;;;;17.57;61.16113;935.755;;;;
2019/07/18 06:17:47;;;;;;;8.4;5.3;;;;;;;18.11;58.79688;935.781;;;;
2019/07/18 06:20:18;;;;;;;9.7;5.2;;;;;;;18.44;58.57324;935.7648;;;;
2019/07/18 06:22:46;;;;;;;7.2;5;;;;;;;18.62;57.13184;935.7541;;;;
2019/07/18 06:25:15;;;;;;;6.5;4.9;;;;;;;18.34;56.93164;935.7695;;;;
2019/07/18 06:27:41;;;;;;;6.7;4.9;;;;;;;18.46;57.30762;935.7797;;;;
2019/07/18 06:30:12;;;;;;;5.3;4.8;;;;;;;19.35;55.65332;935.7275;;;;
2019/07/18 06:32:49;;;;;;;6.3;4.8;;;;;;;19.8;53.4707;935.7283;;;;
2019/07/18 06:35:08;;;;;;;6.4;5;;;;;;;19.15;54.50977;935.8105;;;;
2019/07/18 06:37:31;;;;;;;6.7;4.6;;;;;;;19.45;54.68652;935.7533;;;;
2019/07/18 06:40:01;;;;;;;7.7;4.8;;;;;;;19.92;53.89355;935.8244;;;;
2019/07/18 06:42:38;;;;;;;5.5;4.7;;;;;;;19.59;54.86816;935.7907;;;;
2019/07/18 06:46:54;;;;;;;;;;;;;;;;;;;;;
2019/07/18 06:49:57;;;;;;;5.7;4.7;;;;;;;18.73;56.58691;935.8098;;;;
2019/07/18 06:52:38;;;;;;;7.8;4.6;;;;;;;18.92;57.76367;935.7759;;;;
2019/07/18 08:57:09;;;;;;;6.9;4.8;;;;;;;28.25;37.73633;935.5231;;;;
2019/07/18 08:59:33;;;;;;;4.3;3.7;;;;;;;27.51;42.70508;935.5472;;;;
2019/07/18 09:01:58;;;;;;;6.4;3.8;;;;;;;27.79;40.11914;935.5225;;;;
2019/07/18 09:04:27;;;;;;;7.3;3.7;;;;;;;27.58;43.70801;935.5082;;;;
2019/07/18 09:06:54;;;;;;;8.1;3.9;;;;;;;28.57;41.60352;935.4304;;;;
2019/07/18 09:09:24;;;;;;;5.7;3.4;;;;;;;28.41;41.39941;935.5048;;;;
2019/07/18 09:11:50;;;;;;;8.6;4;;;;;;;29.66;39.4873;935.5519;;;;
2019/07/18 09:14:20;;;;;;;6.9;3.8;;;;;;;29.74;36.76367;935.5424;;;;
2019/07/18 09:16:45;;;;;;;4;3.4;;;;;;;29.86;33.5166;935.5657;;;;
2019/07/18 09:19:10;;;;;;;8.1;3.6;;;;;;;29.98;34.44434;935.5703;;;;
2019/07/18 09:21:34;;;;;;;7.3;3.8;;;;;;;30.17;34.59082;935.5631;;;;
2019/07/18 09:24:09;;;;;;;5.5;3.4;;;;;;;30.13;35.26855;935.6526;;;;
2019/07/18 09:26:33;;;;;;;8;3.7;;;;;;;30.59;34.2041;935.5106;;;;
2019/07/18 09:28:58;;;;;;;6.6;3.7;;;;;;;30.88;32.25391;935.4536;;;;
2019/07/18 09:31:23;;;;;;;7.6;3.7;;;;;;;30.93;31.49219;935.4531;;;;
2019/07/18 09:33:49;;;;;;;9.2;3.8;;;;;;;30.86;32.61133;935.4052;;;;
2019/07/18 09:36:19;;;;;;;5.9;3.6;;;;;;;30.65;32.20117;935.4028;;;;
2019/07/18 09:38:45;;;;;;;6.5;3.6;;;;;;;30.83;33.87598;935.3578;;;;
2019/07/18 09:41:14;;;;;;;8.8;4.1;;;;;;;30.99;32.07031;935.4025;;;;
2019/07/18 09:43:38;;;;;;;6.9;3.8;;;;;;;30.81;30.5752;935.3869;;;;
2019/07/18 09:46:05;;;;;;;7.2;3.8;;;;;;;29.89;32.2793;935.3541;;;;
2019/07/18 09:48:30;;;;;;;11.7;4.1;;;;;;;29.11;33.74707;935.2929;;;;
2019/07/18 09:50:57;;;;;;;5.7;4.1;;;;;;;28.51;34.92773;935.3215;;;;
2019/07/18 09:53:28;;;;;;;6.5;3.7;;;;;;;27.92;36.17676;935.2467;;;;
2019/07/18 09:55:55;;;;;;;5.5;3.9;;;;;;;27.4;37.43945;935.2809;;;;
2019/07/18 09:58:26;;;;;;;7.9;4.8;;;;;;;27.23;38.47949;935.3191;;;;
2019/07/18 10:00:46;;;;;;;9.7;4.5;;;;;;;26.74;38.54395;935.2685;;;;
2019/07/18 10:03:11;;;;;;;10.4;4.3;;;;;;;26.65;39.56738;935.2353;;;;
2019/07/18 10:05:38;;;;;;;7.7;4.5;;;;;;;26.5;39.92188;935.2327;;;;
2019/07/18 10:08:03;;;;;;;6.3;4.3;;;;;;;26.78;40.00488;935.2924;;;;
2019/07/18 10:10:32;;;;;;;6.6;4;;;;;;;26.52;39.78125;935.2511;;;;
2019/07/18 10:12:57;;;;;;;6.1;4.2;;;;;;;26.04;41.40625;935.2595;;;;
2019/07/18 10:15:23;;;;;;;7.4;4.4;;;;;;;26.97;41.52832;935.2689;;;;
2019/07/18 10:17:49;;;;;;;8.6;4.6;;;;;;;27.89;41.94531;935.2349;;;;
2019/07/18 10:20:12;;;;;;;4.4;4;;;;;;;28;37.15723;935.2246;;;;
2019/07/18 10:22:40;;;;;;;7.3;4.6;;;;;;;27.82;38.15137;935.2109;;;;
2019/07/18 10:25:13;;;;;;;6.3;4.7;;;;;;;27.61;38.07324;935.2333;;;;
2019/07/18 10:27:35;;;;;;;5.2;4.4;;;;;;;27.35;39.55762;935.2636;;;;
2019/07/18 10:30:08;;;;;;;7.2;4.7;;;;;;;27.28;40.27441;935.2712;;;;
2019/07/18 10:32:26;;;;;;;9.4;4.5;;;;;;;27.22;40.16309;935.2628;;;;
2019/07/18 10:34:55;;;;;;;9.5;4.5;;;;;;;27.08;40.87402;935.2033;;;;
2019/07/18 10:37:33;;;;;;;8.6;4.6;;;;;;;26.79;41.62891;935.2519;;;;
2019/07/18 10:39:55;;;;;;;7.3;4.2;;;;;;;26.91;39.83887;935.3195;;;;
2019/07/18 10:42:20;;;;;;;6.4;4.2;;;;;;;27.79;38.33789;935.2475;;;;
2019/07/18 10:44:52;;;;;;;5.6;4.1;;;;;;;28.69;37.80859;935.3047;;;;
2019/07/18 10:47:23;;;;;;;4.7;4.2;;;;;;;29.85;35.34082;935.19;;;;
2019/07/18 10:49:47;;;;;;;6;4;;;;;;;30.69;32.95801;935.2025;;;;
2019/07/18 10:52:11;;;;;;;5.4;3.8;;;;;;;31.04;31.11719;935.1141;;;;
2019/07/18 10:54:45;;;;;;;9.1;4.4;;;;;;;30.88;32.27734;935.1208;;;;
2019/07/18 10:57:18;;;;;;;5.4;4;;;;;;;30.86;31.60645;935.1236;;;;
2019/07/18 10:59:42;;;;;;;5.4;3.8;;;;;;;30.98;31.17285;935.0974;;;;
2019/07/18 11:02:11;;;;;;;5;3.8;;;;;;;31.15;29.70117;935.1155;;;;
2019/07/18 11:04:45;;;;;;;7.4;4.1;;;;;;;30.99;28.8291;935.017;;;;
2019/07/18 11:07:09;;;;;;;6;3.9;;;;;;;30.64;31.11328;935.0846;;;;
2019/07/18 11:09:35;;;;;;;6.1;3.9;;;;;;;30.97;29.61816;935.1606;;;;
2019/07/18 11:12:03;;;;;;;4.6;3.6;;;;;;;31.17;28.62598;935.1209;;;;
2019/07/18 11:14:25;;;;;;;5.8;3.7;;;;;;;30.97;29.06738;935.2356;;;;
2019/07/18 11:16:57;;;;;;;7.3;3.8;;;;;;;31.08;29.67285;935.194;;;;
2019/07/18 11:19:26;;;;;;;5.2;3.7;;;;;;;31.45;29.48145;935.1524;;;;
2019/07/18 11:22:00;;;;;;;6;3.8;;;;;;;31.69;29.43652;935.0615;;;;
2019/07/18 11:24:33;;;;;;;6.2;3.8;;;;;;;31.46;28.99121;935.0364;;;;
2019/07/18 11:27:01;;;;;;;4.8;3.6;;;;;;;31.08;31.29883;935.0453;;;;
2019/07/18 11:29:29;;;;;;;6.3;3.8;;;;;;;30.89;31.41699;935.0444;;;;
2019/07/18 11:32:02;;;;;;;7;3.6;;;;;;;30.29;29.57324;935.0421;;;;
2019/07/18 11:35:16;;;;;;;4.8;3.7;;;;;;;29.94;29.88379;934.9517;;;;
2019/07/18 11:43:14;;;;;;;5.3;4;;;;;;;29.2;33.20605;935.0275;;;;
2019/07/18 11:45:58;;;;;;;6.1;3.9;;;;;;;28.73;31.7666;935.0097;;;;
2019/07/18 11:51:02;;;;;;;5.2;3.9;;;;;;;27.92;35.26172;935.0503;;;;
2019/07/18 11:53:27;;;;;;;6.8;4.3;;;;;;;27.81;37.17676;935.038;;;;
2019/07/18 11:55:58;;;;;;;4.6;4.1;;;;;;;27.68;36.80859;935.026;;;;
2019/07/18 11:58:21;;;;;;;6.4;4.3;;;;;;;27.49;35.95117;935.0446;;;;
2019/07/18 12:00:54;;;;;;;5.3;4.3;;;;;;;27.31;36.51758;935.075;;;;
2019/07/18 12:03:16;;;;;;;6.8;4.1;;;;;;;27.27;36.96484;935.0854;;;;
2019/07/18 12:05:41;;;;;;;5.5;4.2;;;;;;;27.07;37.48242;935.0398;;;;
2019/07/18 12:08:17;;;;;;;6.5;4.4;;;;;;;26.98;38.80273;935.1067;;;;
2019/07/18 12:10:44;;;;;;;5.4;4.3;;;;;;;26.85;38.55469;935.0851;;;;
2019/07/18 12:13:09;;;;;;;5.1;4.3;;;;;;;26.74;38.5918;935.1208;;;;
2019/07/18 12:15:33;;;;;;;6;4.2;;;;;;;26.56;41.19336;935.2068;;;;
2019/07/18 12:18:01;;;;;;;6.5;4.6;;;;;;;26.58;39.97559;935.2253;;;;
2019/07/18 12:20:24;;;;;;;5.6;4.6;;;;;;;26.65;40.54004;935.2823;;;;
2019/07/18 12:22:52;;;;;;;6;4.4;;;;;;;26.62;40.55957;935.287;;;;
2019/07/18 12:25:23;;;;;;;8.7;4.5;;;;;;;26.87;40.19141;935.199;;;;
2019/07/18 12:41:54;;;;;;;7;3.8;;;;;;;28.57;32.32715;935.0803;;;;
2019/07/18 12:44:59;;;;;;;6.8;3.9;;;;;;;29.01;31.21582;935.0397;;;;
2019/07/18 12:47:08;;;;;;;4.8;3.4;;;;;;;29.54;30.27539;935.1044;;;;
2019/07/18 12:49:36;;;;;;;6.7;3.6;;;;;;;29.93;30.63477;935.0359;;;;
2019/07/18 12:52:03;;;;;;;5.1;3.6;;;;;;;29.61;31.16211;935.0305;;;;
2019/07/18 12:54:31;;;;;;;6.6;3.9;;;;;;;29.2;31.57422;935.1208;;;;
2019/07/18 12:56:56;;;;;;;4.3;3.4;;;;;;;28.56;30.35156;935.0869;;;;
2019/07/18 12:59:22;;;;;;;5.2;3.6;;;;;;;28.58;33.42188;935.0829;;;;
2019/07/18 13:01:52;;;;;;;6.1;3.8;;;;;;;28.41;34.04004;935.0592;;;;
2019/07/18 13:04:17;;;;;;;4.8;3.5;;;;;;;28.41;32.21973;935.0514;;;;
2019/07/18 13:06:44;;;;;;;6.6;3.7;;;;;;;28.67;30.58496;935.0674;;;;
2019/07/18 13:09:10;;;;;;;11.3;3.7;;;;;;;29.34;31.63184;935.0471;;;;
2019/07/18 13:11:42;;;;;;;5.5;3.6;;;;;;;29.86;31.42969;935.035;;;;
2019/07/18 13:14:07;;;;;;;7.6;3.7;;;;;;;30.36;30.52051;935.048;;;;
2019/07/18 13:16:36;;;;;;;5.8;3.4;;;;;;;30.22;30.42773;935.0028;;;;
2019/07/18 13:19:04;;;;;;;7.1;3.6;;;;;;;30.05;29.5332;935.0988;;;;
2019/07/18 13:21:34;;;;;;;5.8;3.7;;;;;;;29.72;29.79785;935.0828;;;;
2019/07/18 13:23:59;;;;;;;5.3;3.3;;;;;;;29.32;33.16699;935.1075;;;;
2019/07/18 13:26:34;;;;;;;10.8;4.2;;;;;;;28.84;32.47754;935.108;;;;
2019/07/18 13:29:04;;;;;;;7.1;3.6;;;;;;;28.16;34.29395;935.0966;;;;
2019/07/18 13:31:38;;;;;;;6.2;3.6;;;;;;;28.11;32.9834;935.1752;;;;
2019/07/18 13:34:01;;;;;;;8.6;4.1;;;;;;;28;34.60254;935.15;;;;
2019/07/18 13:36:23;;;;;;;6.6;3.7;;;;;;;27.75;38.40527;935.2068;;;;
2019/07/18 13:38:52;;;;;;;10.9;4.6;;;;;;;27.31;38.04883;935.257;;;;
2019/07/18 13:41:14;;;;;;;11.8;5;;;;;;;26.4;44.54004;935.3152;;;;
2019/07/18 13:43:43;;;;;;;6.4;4.1;;;;;;;26.32;41.8584;935.3444;;;;
2019/07/18 13:46:12;;;;;;;14.1;5.2;;;;;;;25.87;48.29395;935.5435;;;;
2019/07/18 13:48:39;;;;;;;14.4;6.1;;;;;;;24.84;57.11328;935.5225;;;;
2019/07/18 13:51:07;;;;;;;10;5.3;;;;;;;24.5;56.75098;935.3971;;;;
2019/07/18 13:53:37;;;;;;;6.6;4.6;;;;;;;24.99;49.75684;935.2994;;;;
2019/07/18 13:56:00;;;;;;;6.2;4;;;;;;;25.23;46.13672;935.3538;;;;
2019/07/18 13:58:27;;;;;;;10.7;4.8;;;;;;;24.75;54.03418;935.3281;;;;
2019/07/18 14:00:51;;;;;;;10.3;5.3;;;;;;;24.11;58.15039;935.3433;;;;
2019/07/18 14:03:19;;;;;;;8.1;5;;;;;;;23.58;59.99805;935.3201;;;;
2019/07/18 14:05:43;;;;;;;8.6;5.6;;;;;;;23.43;62.71875;935.2858;;;;
2019/07/18 14:08:19;;;;;;;8.6;5.6;;;;;;;23.5;64.77344;935.2794;;;;
2019/07/18 14:10:43;;;;;;;7.8;5.5;;;;;;;23.54;66.15625;935.3386;;;;
2019/07/18 14:13:14;;;;;;;6.6;5.4;;;;;;;23.5;66.05566;935.2794;;;;
2019/07/18 14:15:33;;;;;;;7.6;5.5;;;;;;;23.59;63.10449;935.2838;;;;
2019/07/18 14:17:59;;;;;;;6.1;5.3;;;;;;;23.8;65.15918;935.2516;;;;
2019/07/18 14:20:30;;;;;;;6.6;4.9;;;;;;;24.45;62.01074;935.2843;;;;
2019/07/18 14:23:06;;;;;;;5.8;4.7;;;;;;;25.06;59.09863;935.2809;;;;
2019/07/18 14:25:25;;;;;;;6;4.6;;;;;;;25.52;57.62402;935.1604;;;;
2019/07/18 14:27:50;;;;;;;7.6;4.7;;;;;;;25.87;56.31055;935.1819;;;;
2019/07/18 14:30:20;;;;;;;6.9;4.6;;;;;;;25.88;58.3457;935.1845;;;;
2019/07/18 14:32:53;;;;;;;5.5;4.6;;;;;;;25.58;62.46582;935.1494;;;;
2019/07/18 14:35:19;;;;;;;6.2;4.5;;;;;;;25.35;58.34668;935.0865;;;;
2019/07/18 14:37:53;;;;;;;5.7;4.4;;;;;;;25.29;59.21289;935.0963;;;;
2019/07/18 14:40:27;;;;;;;6.8;4.2;;;;;;;25.06;55.00488;935.1494;;;;
2019/07/18 14:42:59;;;;;;;4.7;4.2;;;;;;;24.91;54.43066;935.0477;;;;
2019/07/18 14:45:29;;;;;;;6.2;4.3;;;;;;;24.6;53.52148;935.069;;;;
2019/07/18 14:47:50;;;;;;;6.7;4.1;;;;;;;24.5;55.31348;935.0584;;;;
2019/07/18 14:50:23;;;;;;;4.7;4.2;;;;;;;24.47;55.30859;935.0201;;;;
2019/07/18 14:53:29;;;;;;;5.9;4.4;;;;;;;24.37;56.38086;935.0875;;;;
2019/07/18 14:55:54;;;;;;;10.5;5;;;;;;;24.4;61.2168;935.0606;;;;
2019/07/18 15:04:14;;;;;;;4.7;4.2;;;;;;;24.97;58.22656;935.0198;;;;
2019/07/18 15:06:48;;;;;;;5;4.5;;;;;;;25.31;58.87305;935.0366;;;;
2019/07/18 15:09:17;;;;;;;6.2;4.1;;;;;;;25.4;58.53125;935.0089;;;;
2019/07/18 15:11:43;;;;;;;5.5;4.1;;;;;;;25.52;57.73145;934.9244;;;;
2019/07/18 15:14:10;;;;;;;4.7;4.2;;;;;;;25.65;55.9873;935.0042;;;;
2019/07/18 15:17:00;;;;;;;6.8;3.9;;;;;;;25.78;53.5918;934.9144;;;;
2019/07/18 15:19:38;;;;;;;5.4;4;;;;;;;25.69;53.67578;934.9853;;;;
2019/07/18 15:22:33;;;;;;;6.6;4.4;;;;;;;25.6;57.1748;934.9983;;;;
2019/07/18 15:24:32;;;;;;;6.8;4.2;;;;;;;25.65;55.95215;934.9781;;;;
2019/07/18 15:26:58;;;;;;;5;3.8;;;;;;;25.72;53.13477;934.9242;;;;
2019/07/18 15:30:25;;;;;;;5.4;4;;;;;;;25.68;52.08008;934.8861;;;;
2019/07/18 15:33:09;;;;;;;7.1;4;;;;;;;25.76;53.44922;934.8254;;;;
2019/07/18 15:35:50;;;;;;;5.9;3.9;;;;;;;25.67;51.61719;934.8622;;;;
2019/07/18 15:41:16;;;;;;;5.3;3.9;;;;;;;25.31;52.7207;934.8578;;;;
2019/07/18 15:43:39;;;;;;;11.1;4.5;;;;;;;25.15;54.00098;934.827;;;;
2019/07/18 15:46:04;;;;;;;5;4.2;;;;;;;25.04;55.47363;934.9105;;;;
2019/07/18 15:48:32;;;;;;;6.3;3.9;;;;;;;24.87;50.99512;934.8752;;;;
2019/07/18 15:50:59;;;;;;;6.3;4.4;;;;;;;25.07;51.44238;934.8613;;;;
2019/07/18 15:53:26;;;;;;;5;4.1;;;;;;;25.16;51.4873;934.908;;;;
2019/07/18 15:59:39;;;;;;;5.8;3.9;;;;;;;25.47;51.16992;934.8625;;;;
2019/07/18 16:02:07;;;;;;;8.5;3.9;;;;;;;25.57;50.3418;934.8647;;;;
2019/07/18 16:04:34;;;;;;;5.1;3.9;;;;;;;25.43;50.00684;934.9178;;;;
2019/07/18 16:06:54;;;;;;;8.6;4.1;;;;;;;25.54;49.64063;934.8788;;;;
2019/07/18 16:09:20;;;;;;;6.4;4;;;;;;;25.49;49.70605;934.9292;;;;
2019/07/18 16:11:50;;;;;;;6.6;4.1;;;;;;;25.61;49.47266;934.9448;;;;
2019/07/18 16:14:21;;;;;;;5.5;4.2;;;;;;;25.61;52.0127;935.01;;;;
2019/07/18 16:16:45;;;;;;;12.1;4.3;;;;;;;25.6;52.80273;934.9069;;;;
2019/07/18 16:19:27;;;;;;;5.2;4.1;;;;;;;25.25;52.16992;934.9119;;;;
2019/07/18 16:21:49;;;;;;;10.2;4.3;;;;;;;25.39;51.55078;934.9579;;;;
2019/07/18 16:24:13;;;;;;;5.7;3.7;;;;;;;25.48;50.74609;934.9565;;;;
2019/07/18 16:26:39;;;;;;;5.5;3.6;;;;;;;25.38;51.16016;934.9643;;;;
2019/07/18 16:29:06;;;;;;;8;4;;;;;;;25.3;50.57227;934.9464;;;;
2019/07/18 16:31:36;;;;;;;7.2;3.9;;;;;;;25.35;50.75391;934.9651;;;;
2019/07/18 16:34:03;;;;;;;9.7;4;;;;;;;25.34;51.14258;934.9573;;;;
2019/07/18 16:36:26;;;;;;;8.4;4.2;;;;;;;25.47;52.17285;934.9369;;;;
2019/07/18 16:38:51;;;;;;;5.2;3.7;;;;;;;25.4;50.14648;934.9606;;;;
2019/07/18 16:41:22;;;;;;;11;3.7;;;;;;;25.36;49.60938;935.0292;;;;
2019/07/18 16:43:44;;;;;;;5.7;3.5;;;;;;;25.27;50.34375;934.9865;;;;
2019/07/18 16:46:09;;;;;;;5.8;3.7;;;;;;;25.24;51.60352;935.0605;;;;
2019/07/18 16:48:42;;;;;;;7.2;3.6;;;;;;;25.27;51.5;935.0556;;;;
2019/07/18 16:51:08;;;;;;;6.1;3.6;;;;;;;25.19;52.45898;935.0335;;;;
2019/07/18 16:53:37;;;;;;;7;3.6;;;;;;;25.21;53.60645;935.039;;;;
2019/07/18 16:56:05;;;;;;;5.5;3.3;;;;;;;25.19;50.44043;935.0466;;;;
2019/07/18 16:58:31;;;;;;;5;3.4;;;;;;;24.96;51.73633;935.0992;;;;
2019/07/18 17:01:07;;;;;;;8.3;3.9;;;;;;;24.94;53.00879;935.0938;;;;
2019/07/18 17:03:30;;;;;;;5.7;3.4;;;;;;;24.73;49.72852;935.0972;;;;
2019/07/18 17:06:00;;;;;;;6.8;3.4;;;;;;;24.61;51.80176;935.0809;;;;
2019/07/18 17:08:27;;;;;;;7.7;3.5;;;;;;;24.7;52.17773;935.0967;;;;
2019/07/18 17:10:54;;;;;;;6.4;3.2;;;;;;;24.68;51.46777;935.1083;;;;
2019/07/18 17:13:21;;;;;;;4.6;3.5;;;;;;;24.54;51.4043;935.1255;;;;
2019/07/18 17:15:56;;;;;;;6.9;3.4;;;;;;;24.58;47.49609;935.1456;;;;
2019/07/18 17:18:22;;;;;;;8.9;3.6;;;;;;;24.57;50.62988;935.2079;;;;
2019/07/18 17:20:52;;;;;;;6.4;3.1;;;;;;;24.48;47.82617;935.2574;;;;
2019/07/18 17:23:20;;;;;;;5.5;3.2;;;;;;;24.49;49.96094;935.2681;;;;
2019/07/18 17:25:43;;;;;;;5;2.6;;;;;;;24.52;45.90918;935.3024;;;;
2019/07/18 17:28:08;;;;;;;2.9;2.6;;;;;;;24.49;39.68262;935.2432;;;;
2019/07/18 17:30:37;;;;;;;5.9;3.2;;;;;;;24.4;35.45605;935.2911;;;;
2019/07/18 17:33:04;;;;;;;3.6;2.5;;;;;;;24.44;36.07324;935.3284;;;;
2019/07/18 17:35:29;;;;;;;6.2;3.3;;;;;;;24.54;35.44434;935.3079;;;;